sensor_id;sensor_type;location;lat;lon;timestamp;temperature;humidity
1786;DHT22;890;48.158;11.540;2024-02-04T00:00:34;7.90;90.20
1786;DHT22;890;48.158;11.540;2024-02-04T00:03:00;7.90;90.30
1786;DHT22;890;48.158;11.540;2024-02-04T00:05:26;7.90;90.40
1786;DHT22;890;48.158;11.540;2024-02-04T00:07:51;8.00;90.60
1786;DHT22;890;48.158;11.540;2024-02-04T00:10:17;8.00;90.50
1786;DHT22;890;48.158;11.540;2024-02-04T00:12:44;7.90;90.50
1786;DHT22;890;48.158;11.540;2024-02-04T00:15:09;7.80;90.70
1786;DHT22;890;48.158;11.540;2024-02-04T00:17:35;7.80;90.80
1786;DHT22;890;48.158;11.540;2024-02-04T00:20:02;7.80;90.90
1786;DHT22;890;48.158;11.540;2024-02-04T00:22:28;7.70;91.00
1786;DHT22;890;48.158;11.540;2024-02-04T00:24:54;7.70;91.00
1786;DHT22;890;48.158;11.540;2024-02-04T00:27:20;7.80;91.20
1786;DHT22;890;48.158;11.540;2024-02-04T00:29:45;7.80;91.30
1786;DHT22;890;48.158;11.540;2024-02-04T00:32:11;7.70;91.30
1786;DHT22;890;48.158;11.540;2024-02-04T00:34:37;7.70;91.40
1786;DHT22;890;48.158;11.540;2024-02-04T00:37:02;7.70;91.50
1786;DHT22;890;48.158;11.540;2024-02-04T00:39:28;7.70;91.50
1786;DHT22;890;48.158;11.540;2024-02-04T00:41:54;7.70;91.70
1786;DHT22;890;48.158;11.540;2024-02-04T00:44:19;7.80;91.80
1786;DHT22;890;48.158;11.540;2024-02-04T00:46:45;7.70;91.80
1786;DHT22;890;48.158;11.540;2024-02-04T00:49:11;7.70;91.90
1786;DHT22;890;48.158;11.540;2024-02-04T00:51:36;7.70;92.00
1786;DHT22;890;48.158;11.540;2024-02-04T00:54:02;7.60;92.00
1786;DHT22;890;48.158;11.540;2024-02-04T00:56:28;7.60;92.10
1786;DHT22;890;48.158;11.540;2024-02-04T00:58:53;8.00;92.40
1786;DHT22;890;48.158;11.540;2024-02-04T01:01:19;5.80;91.50
1786;DHT22;890;48.158;11.540;2024-02-04T01:03:45;7.50;92.30
1786;DHT22;890;48.158;11.540;2024-02-04T01:06:10;7.50;92.40
1786;DHT22;890;48.158;11.540;2024-02-04T01:08:36;7.50;92.50
1786;DHT22;890;48.158;11.540;2024-02-04T01:11:04;7.50;92.60
1786;DHT22;890;48.158;11.540;2024-02-04T01:13:30;7.50;92.70
1786;DHT22;890;48.158;11.540;2024-02-04T01:15:56;7.60;92.80
1786;DHT22;890;48.158;11.540;2024-02-04T01:18:21;7.70;92.90
1786;DHT22;890;48.158;11.540;2024-02-04T01:20:47;7.50;92.80
1786;DHT22;890;48.158;11.540;2024-02-04T01:23:13;7.40;92.80
1786;DHT22;890;48.158;11.540;2024-02-04T01:25:38;7.40;92.90
1786;DHT22;890;48.158;11.540;2024-02-04T01:28:04;7.40;93.10
1786;DHT22;890;48.158;11.540;2024-02-04T01:30:30;7.40;93.10
1786;DHT22;890;48.158;11.540;2024-02-04T01:32:56;7.50;93.20
1786;DHT22;890;48.158;11.540;2024-02-04T01:35:22;7.40;93.20
1786;DHT22;890;48.158;11.540;2024-02-04T01:37:48;7.20;93.20
1786;DHT22;890;48.158;11.540;2024-02-04T01:40:14;7.20;93.30
1786;DHT22;890;48.158;11.540;2024-02-04T01:42:40;7.20;93.40
1786;DHT22;890;48.158;11.540;2024-02-04T01:45:06;7.20;93.50
1786;DHT22;890;48.158;11.540;2024-02-04T01:47:33;7.10;93.50
1786;DHT22;890;48.158;11.540;2024-02-04T01:49:59;7.10;93.60
1786;DHT22;890;48.158;11.540;2024-02-04T01:52:25;7.20;93.70
1786;DHT22;890;48.158;11.540;2024-02-04T01:54:52;7.20;93.70
1786;DHT22;890;48.158;11.540;2024-02-04T01:57:18;7.30;93.80
1786;DHT22;890;48.158;11.540;2024-02-04T01:59:45;7.40;93.90
1786;DHT22;890;48.158;11.540;2024-02-04T02:02:11;7.40;93.90
1786;DHT22;890;48.158;11.540;2024-02-04T02:04:37;7.50;93.90
1786;DHT22;890;48.158;11.540;2024-02-04T02:07:04;7.50;93.90
1786;DHT22;890;48.158;11.540;2024-02-04T02:09:29;7.50;93.90
1786;DHT22;890;48.158;11.540;2024-02-04T02:12:09;7.50;93.80
1786;DHT22;890;48.158;11.540;2024-02-04T02:14:39;7.50;93.80
1786;DHT22;890;48.158;11.540;2024-02-04T02:17:13;7.50;93.70
1786;DHT22;890;48.158;11.540;2024-02-04T02:19:52;7.50;93.60
1786;DHT22;890;48.158;11.540;2024-02-04T02:22:36;7.60;93.70
1786;DHT22;890;48.158;11.540;2024-02-04T02:25:03;7.50;93.60
1786;DHT22;890;48.158;11.540;2024-02-04T02:27:30;7.60;93.60
1786;DHT22;890;48.158;11.540;2024-02-04T02:29:56;7.60;93.50
1786;DHT22;890;48.158;11.540;2024-02-04T02:32:22;7.60;93.60
1786;DHT22;890;48.158;11.540;2024-02-04T02:34:48;7.60;93.60
1786;DHT22;890;48.158;11.540;2024-02-04T02:37:33;7.70;93.70
1786;DHT22;890;48.158;11.540;2024-02-04T02:42:46;7.50;93.50
1786;DHT22;890;48.158;11.540;2024-02-04T02:45:12;7.60;93.50
1786;DHT22;890;48.158;11.540;2024-02-04T02:47:39;7.60;93.60
1786;DHT22;890;48.158;11.540;2024-02-04T02:50:07;7.60;93.60
1786;DHT22;890;48.158;11.540;2024-02-04T02:52:33;7.60;93.60
1786;DHT22;890;48.158;11.540;2024-02-04T02:54:59;7.60;93.50
1786;DHT22;890;48.158;11.540;2024-02-04T02:57:24;7.50;93.50
1786;DHT22;890;48.158;11.540;2024-02-04T02:59:50;7.60;93.60
1786;DHT22;890;48.158;11.540;2024-02-04T03:02:16;7.60;93.60
1786;DHT22;890;48.158;11.540;2024-02-04T03:04:41;7.60;93.60
1786;DHT22;890;48.158;11.540;2024-02-04T03:07:07;7.70;93.70
1786;DHT22;890;48.158;11.540;2024-02-04T03:09:33;7.70;93.60
1786;DHT22;890;48.158;11.540;2024-02-04T03:11:59;7.70;93.60
1786;DHT22;890;48.158;11.540;2024-02-04T03:14:24;7.70;93.60
1786;DHT22;890;48.158;11.540;2024-02-04T03:16:50;7.70;93.60
1786;DHT22;890;48.158;11.540;2024-02-04T03:19:16;7.70;93.70
1786;DHT22;890;48.158;11.540;2024-02-04T03:21:41;7.70;93.70
1786;DHT22;890;48.158;11.540;2024-02-04T03:24:07;7.80;93.60
1786;DHT22;890;48.158;11.540;2024-02-04T03:26:32;7.70;93.60
1786;DHT22;890;48.158;11.540;2024-02-04T03:28:58;7.70;93.60
1786;DHT22;890;48.158;11.540;2024-02-04T03:31:24;7.80;93.60
1786;DHT22;890;48.158;11.540;2024-02-04T03:33:50;7.80;93.60
1786;DHT22;890;48.158;11.540;2024-02-04T03:36:19;7.70;93.50
1786;DHT22;890;48.158;11.540;2024-02-04T03:38:44;7.70;93.60
1786;DHT22;890;48.158;11.540;2024-02-04T03:41:10;7.70;93.70
1786;DHT22;890;48.158;11.540;2024-02-04T03:43:36;7.80;93.70
1786;DHT22;890;48.158;11.540;2024-02-04T03:46:02;7.80;93.70
1786;DHT22;890;48.158;11.540;2024-02-04T03:48:28;7.80;93.70
1786;DHT22;890;48.158;11.540;2024-02-04T03:50:54;7.70;93.60
1786;DHT22;890;48.158;11.540;2024-02-04T03:53:19;7.80;93.60
1786;DHT22;890;48.158;11.540;2024-02-04T03:55:46;7.80;93.70
1786;DHT22;890;48.158;11.540;2024-02-04T03:58:12;7.80;93.70
1786;DHT22;890;48.158;11.540;2024-02-04T04:00:37;7.90;93.70
1786;DHT22;890;48.158;11.540;2024-02-04T04:03:03;7.80;93.60
1786;DHT22;890;48.158;11.540;2024-02-04T04:05:29;7.90;93.70
1786;DHT22;890;48.158;11.540;2024-02-04T04:07:55;8.00;93.70
1786;DHT22;890;48.158;11.540;2024-02-04T04:10:20;7.90;93.60
1786;DHT22;890;48.158;11.540;2024-02-04T04:12:46;7.90;93.70
1786;DHT22;890;48.158;11.540;2024-02-04T04:15:12;7.90;93.70
1786;DHT22;890;48.158;11.540;2024-02-04T04:17:37;7.90;93.70
1786;DHT22;890;48.158;11.540;2024-02-04T04:20:05;8.00;93.80
1786;DHT22;890;48.158;11.540;2024-02-04T04:22:31;8.00;93.80
1786;DHT22;890;48.158;11.540;2024-02-04T04:24:57;8.00;93.80
1786;DHT22;890;48.158;11.540;2024-02-04T04:27:22;8.00;93.80
1786;DHT22;890;48.158;11.540;2024-02-04T04:29:48;8.00;93.80
1786;DHT22;890;48.158;11.540;2024-02-04T04:32:13;7.90;94.00
1786;DHT22;890;48.158;11.540;2024-02-04T04:34:39;8.00;94.30
1786;DHT22;890;48.158;11.540;2024-02-04T04:37:05;7.80;94.40
1786;DHT22;890;48.158;11.540;2024-02-04T04:39:30;7.80;94.50
1786;DHT22;890;48.158;11.540;2024-02-04T04:41:57;7.70;94.60
1786;DHT22;890;48.158;11.540;2024-02-04T04:44:22;7.60;94.70
1786;DHT22;890;48.158;11.540;2024-02-04T04:46:48;7.60;94.80
1786;DHT22;890;48.158;11.540;2024-02-04T04:49:14;7.70;95.00
1786;DHT22;890;48.158;11.540;2024-02-04T04:51:39;7.70;95.00
1786;DHT22;890;48.158;11.540;2024-02-04T04:54:05;7.80;95.00
1786;DHT22;890;48.158;11.540;2024-02-04T04:56:35;7.70;94.90
1786;DHT22;890;48.158;11.540;2024-02-04T04:59:03;7.80;95.00
1786;DHT22;890;48.158;11.540;2024-02-04T05:01:28;7.80;94.90
1786;DHT22;890;48.158;11.540;2024-02-04T05:03:54;7.90;94.90
1786;DHT22;890;48.158;11.540;2024-02-04T05:06:19;7.80;94.90
1786;DHT22;890;48.158;11.540;2024-02-04T05:08:45;7.90;94.90
1786;DHT22;890;48.158;11.540;2024-02-04T05:11:11;7.90;94.80
1786;DHT22;890;48.158;11.540;2024-02-04T05:13:39;7.90;94.80
1786;DHT22;890;48.158;11.540;2024-02-04T05:16:05;7.90;94.80
1786;DHT22;890;48.158;11.540;2024-02-04T05:18:30;7.90;94.70
1786;DHT22;890;48.158;11.540;2024-02-04T05:20:56;7.90;94.70
1786;DHT22;890;48.158;11.540;2024-02-04T05:23:21;7.90;94.50
1786;DHT22;890;48.158;11.540;2024-02-04T05:25:47;8.00;94.50
1786;DHT22;890;48.158;11.540;2024-02-04T05:28:13;8.00;94.40
1786;DHT22;890;48.158;11.540;2024-02-04T05:30:38;8.00;94.40
1786;DHT22;890;48.158;11.540;2024-02-04T05:33:04;8.10;94.50
1786;DHT22;890;48.158;11.540;2024-02-04T05:35:30;8.00;94.60
1786;DHT22;890;48.158;11.540;2024-02-04T05:37:55;8.00;94.60
1786;DHT22;890;48.158;11.540;2024-02-04T05:40:21;8.00;94.70
1786;DHT22;890;48.158;11.540;2024-02-04T05:42:47;8.00;94.90
1786;DHT22;890;48.158;11.540;2024-02-04T05:45:12;8.10;95.20
1786;DHT22;890;48.158;11.540;2024-02-04T05:47:38;7.90;95.50
1786;DHT22;890;48.158;11.540;2024-02-04T05:50:04;7.80;95.70
1786;DHT22;890;48.158;11.540;2024-02-04T05:52:30;7.70;96.00
1786;DHT22;890;48.158;11.540;2024-02-04T05:54:56;8.10;96.60
1786;DHT22;890;48.158;11.540;2024-02-04T05:57:21;7.80;96.70
1786;DHT22;890;48.158;11.540;2024-02-04T05:59:47;7.70;96.90
1786;DHT22;890;48.158;11.540;2024-02-04T06:02:15;7.70;97.00
1786;DHT22;890;48.158;11.540;2024-02-04T06:04:41;7.70;97.10
1786;DHT22;890;48.158;11.540;2024-02-04T06:07:06;7.80;97.20
1786;DHT22;890;48.158;11.540;2024-02-04T06:09:33;7.80;97.30
1786;DHT22;890;48.158;11.540;2024-02-04T06:11:58;7.80;97.40
1786;DHT22;890;48.158;11.540;2024-02-04T06:14:24;7.90;97.40
1786;DHT22;890;48.158;11.540;2024-02-04T06:16:50;7.90;97.40
1786;DHT22;890;48.158;11.540;2024-02-04T06:19:15;7.90;97.40
1786;DHT22;890;48.158;11.540;2024-02-04T06:21:41;7.90;97.50
1786;DHT22;890;48.158;11.540;2024-02-04T06:24:07;8.00;97.60
1786;DHT22;890;48.158;11.540;2024-02-04T06:26:32;8.00;97.50
1786;DHT22;890;48.158;11.540;2024-02-04T06:28:58;8.00;97.50
1786;DHT22;890;48.158;11.540;2024-02-04T06:31:24;8.00;97.50
1786;DHT22;890;48.158;11.540;2024-02-04T06:33:49;8.00;97.60
1786;DHT22;890;48.158;11.540;2024-02-04T06:36:16;8.10;97.70
1786;DHT22;890;48.158;11.540;2024-02-04T06:38:41;8.20;97.80
1786;DHT22;890;48.158;11.540;2024-02-04T06:41:07;8.10;97.70
1786;DHT22;890;48.158;11.540;2024-02-04T06:43:33;8.10;97.70
1786;DHT22;890;48.158;11.540;2024-02-04T06:45:58;8.00;97.70
1786;DHT22;890;48.158;11.540;2024-02-04T06:48:24;8.00;97.70
1786;DHT22;890;48.158;11.540;2024-02-04T06:50:49;8.00;97.70
1786;DHT22;890;48.158;11.540;2024-02-04T06:53:15;8.10;97.70
1786;DHT22;890;48.158;11.540;2024-02-04T06:55:41;8.00;97.70
1786;DHT22;890;48.158;11.540;2024-02-04T06:58:06;8.10;97.70
1786;DHT22;890;48.158;11.540;2024-02-04T07:00:32;8.00;97.70
1786;DHT22;890;48.158;11.540;2024-02-04T07:02:58;8.00;97.80
1786;DHT22;890;48.158;11.540;2024-02-04T07:05:23;8.10;97.90
1786;DHT22;890;48.158;11.540;2024-02-04T07:07:50;8.20;97.90
1786;DHT22;890;48.158;11.540;2024-02-04T07:10:16;8.10;97.90
1786;DHT22;890;48.158;11.540;2024-02-04T07:12:42;8.10;97.90
1786;DHT22;890;48.158;11.540;2024-02-04T07:15:08;8.20;97.90
1786;DHT22;890;48.158;11.540;2024-02-04T07:17:34;8.20;97.80
1786;DHT22;890;48.158;11.540;2024-02-04T07:20:01;8.10;97.70
1786;DHT22;890;48.158;11.540;2024-02-04T07:22:28;8.30;97.70
1786;DHT22;890;48.158;11.540;2024-02-04T07:24:54;8.20;97.70
1786;DHT22;890;48.158;11.540;2024-02-04T07:27:19;8.30;98.00
1786;DHT22;890;48.158;11.540;2024-02-04T07:29:45;8.20;97.80
1786;DHT22;890;48.158;11.540;2024-02-04T07:32:12;8.30;97.60
1786;DHT22;890;48.158;11.540;2024-02-04T07:34:38;8.30;97.50
1786;DHT22;890;48.158;11.540;2024-02-04T07:37:04;8.30;97.40
1786;DHT22;890;48.158;11.540;2024-02-04T07:39:29;8.30;97.40
1786;DHT22;890;48.158;11.540;2024-02-04T07:41:56;8.30;97.40
1786;DHT22;890;48.158;11.540;2024-02-04T07:44:28;8.40;97.30
1786;DHT22;890;48.158;11.540;2024-02-04T07:46:54;8.40;97.20
1786;DHT22;890;48.158;11.540;2024-02-04T07:49:20;8.40;97.20
1786;DHT22;890;48.158;11.540;2024-02-04T07:51:45;8.50;97.10
1786;DHT22;890;48.158;11.540;2024-02-04T07:54:11;8.50;97.10
1786;DHT22;890;48.158;11.540;2024-02-04T07:56:36;8.50;97.20
1786;DHT22;890;48.158;11.540;2024-02-04T07:59:02;8.60;97.10
1786;DHT22;890;48.158;11.540;2024-02-04T08:01:29;8.70;97.10
1786;DHT22;890;48.158;11.540;2024-02-04T08:03:55;8.70;96.90
1786;DHT22;890;48.158;11.540;2024-02-04T08:06:20;8.80;96.90
1786;DHT22;890;48.158;11.540;2024-02-04T08:08:46;8.80;96.90
1786;DHT22;890;48.158;11.540;2024-02-04T08:11:16;8.80;96.90
1786;DHT22;890;48.158;11.540;2024-02-04T08:13:43;8.80;96.60
1786;DHT22;890;48.158;11.540;2024-02-04T08:16:08;8.80;96.50
1786;DHT22;890;48.158;11.540;2024-02-04T08:18:34;8.90;96.50
1786;DHT22;890;48.158;11.540;2024-02-04T08:21:00;8.90;96.40
1786;DHT22;890;48.158;11.540;2024-02-04T08:23:25;9.00;96.50
1786;DHT22;890;48.158;11.540;2024-02-04T08:25:51;9.10;96.40
1786;DHT22;890;48.158;11.540;2024-02-04T08:28:17;9.20;96.40
1786;DHT22;890;48.158;11.540;2024-02-04T08:30:42;9.10;96.30
1786;DHT22;890;48.158;11.540;2024-02-04T08:33:08;9.20;96.30
1786;DHT22;890;48.158;11.540;2024-02-04T08:35:34;9.20;95.90
1786;DHT22;890;48.158;11.540;2024-02-04T08:38:00;9.20;95.90
1786;DHT22;890;48.158;11.540;2024-02-04T08:40:25;9.20;95.80
1786;DHT22;890;48.158;11.540;2024-02-04T08:42:51;9.30;95.80
1786;DHT22;890;48.158;11.540;2024-02-04T08:45:17;9.30;95.70
1786;DHT22;890;48.158;11.540;2024-02-04T08:47:42;9.30;95.60
1786;DHT22;890;48.158;11.540;2024-02-04T08:50:08;9.40;95.70
1786;DHT22;890;48.158;11.540;2024-02-04T08:52:34;9.40;95.70
1786;DHT22;890;48.158;11.540;2024-02-04T08:55:00;9.70;95.80
1786;DHT22;890;48.158;11.540;2024-02-04T08:57:32;9.60;95.50
1786;DHT22;890;48.158;11.540;2024-02-04T08:59:57;9.70;95.50
1786;DHT22;890;48.158;11.540;2024-02-04T09:02:23;9.80;95.30
1786;DHT22;890;48.158;11.540;2024-02-04T09:04:48;9.80;95.30
1786;DHT22;890;48.158;11.540;2024-02-04T09:07:14;9.90;95.70
1786;DHT22;890;48.158;11.540;2024-02-04T09:09:40;10.10;96.50
1786;DHT22;890;48.158;11.540;2024-02-04T09:12:09;10.30;97.20
1786;DHT22;890;48.158;11.540;2024-02-04T09:14:34;10.50;97.20
1786;DHT22;890;48.158;11.540;2024-02-04T09:17:03;10.60;97.30
1786;DHT22;890;48.158;11.540;2024-02-04T09:19:29;10.70;96.60
1786;DHT22;890;48.158;11.540;2024-02-04T09:21:56;10.70;96.50
1786;DHT22;890;48.158;11.540;2024-02-04T09:24:22;10.60;96.30
1786;DHT22;890;48.158;11.540;2024-02-04T09:26:47;10.60;96.00
1786;DHT22;890;48.158;11.540;2024-02-04T09:29:13;10.70;95.80
1786;DHT22;890;48.158;11.540;2024-02-04T09:31:39;10.60;94.80
1786;DHT22;890;48.158;11.540;2024-02-04T09:34:05;10.50;93.90
1786;DHT22;890;48.158;11.540;2024-02-04T09:36:31;10.60;93.80
1786;DHT22;890;48.158;11.540;2024-02-04T09:38:56;10.50;93.40
1786;DHT22;890;48.158;11.540;2024-02-04T09:41:22;10.60;93.30
1786;DHT22;890;48.158;11.540;2024-02-04T09:43:50;10.50;93.00
1786;DHT22;890;48.158;11.540;2024-02-04T09:46:17;10.50;92.40
1786;DHT22;890;48.158;11.540;2024-02-04T09:48:45;10.40;92.20
1786;DHT22;890;48.158;11.540;2024-02-04T09:51:11;10.40;92.00
1786;DHT22;890;48.158;11.540;2024-02-04T09:53:41;10.30;91.90
1786;DHT22;890;48.158;11.540;2024-02-04T09:56:09;10.20;91.70
1786;DHT22;890;48.158;11.540;2024-02-04T09:58:36;10.20;91.70
1786;DHT22;890;48.158;11.540;2024-02-04T10:01:03;10.20;91.70
1786;DHT22;890;48.158;11.540;2024-02-04T10:03:29;10.30;91.60
1786;DHT22;890;48.158;11.540;2024-02-04T10:05:56;10.20;91.50
1786;DHT22;890;48.158;11.540;2024-02-04T10:08:21;10.30;91.70
1786;DHT22;890;48.158;11.540;2024-02-04T10:10:47;10.30;91.70
1786;DHT22;890;48.158;11.540;2024-02-04T10:13:14;10.40;91.60
1786;DHT22;890;48.158;11.540;2024-02-04T10:15:39;10.50;91.50
1786;DHT22;890;48.158;11.540;2024-02-04T10:18:05;10.50;91.30
1786;DHT22;890;48.158;11.540;2024-02-04T10:20:32;10.30;91.00
1786;DHT22;890;48.158;11.540;2024-02-04T10:22:58;10.30;91.00
1786;DHT22;890;48.158;11.540;2024-02-04T10:25:24;10.40;91.20
1786;DHT22;890;48.158;11.540;2024-02-04T10:27:50;10.40;91.60
1786;DHT22;890;48.158;11.540;2024-02-04T10:30:21;10.40;91.20
1786;DHT22;890;48.158;11.540;2024-02-04T10:32:50;10.50;91.10
1786;DHT22;890;48.158;11.540;2024-02-04T10:35:16;10.50;91.20
1786;DHT22;890;48.158;11.540;2024-02-04T10:37:45;10.60;91.60
1786;DHT22;890;48.158;11.540;2024-02-04T10:40:11;10.90;92.90
1786;DHT22;890;48.158;11.540;2024-02-04T10:42:38;11.10;93.10
1786;DHT22;890;48.158;11.540;2024-02-04T10:45:08;11.30;93.10
1786;DHT22;890;48.158;11.540;2024-02-04T10:47:38;11.40;93.20
1786;DHT22;890;48.158;11.540;2024-02-04T10:50:05;11.70;94.20
1786;DHT22;890;48.158;11.540;2024-02-04T10:52:38;11.90;93.50
1786;DHT22;890;48.158;11.540;2024-02-04T10:55:09;11.80;91.80
1786;DHT22;890;48.158;11.540;2024-02-04T10:57:35;11.50;90.70
1786;DHT22;890;48.158;11.540;2024-02-04T11:00:05;11.40;90.30
1786;DHT22;890;48.158;11.540;2024-02-04T11:02:37;11.30;90.10
1786;DHT22;890;48.158;11.540;2024-02-04T11:05:04;11.30;90.10
1786;DHT22;890;48.158;11.540;2024-02-04T11:07:32;11.30;90.20
1786;DHT22;890;48.158;11.540;2024-02-04T11:10:03;11.40;90.70
1786;DHT22;890;48.158;11.540;2024-02-04T11:12:30;11.50;90.40
1786;DHT22;890;48.158;11.540;2024-02-04T11:15:00;11.60;90.10
1786;DHT22;890;48.158;11.540;2024-02-04T11:25:54;12.80;92.20
1786;DHT22;890;48.158;11.540;2024-02-04T11:28:21;13.20;92.20
1786;DHT22;890;48.158;11.540;2024-02-04T11:30:48;13.40;92.50
1786;DHT22;890;48.158;11.540;2024-02-04T11:33:18;13.70;93.00
1786;DHT22;890;48.158;11.540;2024-02-04T11:35:45;13.90;93.60
1786;DHT22;890;48.158;11.540;2024-02-04T11:38:11;14.20;92.50
1786;DHT22;890;48.158;11.540;2024-02-04T11:40:39;14.30;91.50
1786;DHT22;890;48.158;11.540;2024-02-04T11:45:31;13.90;88.50
1786;DHT22;890;48.158;11.540;2024-02-04T11:48:03;13.90;88.10
1786;DHT22;890;48.158;11.540;2024-02-04T11:50:29;13.80;86.40
1786;DHT22;890;48.158;11.540;2024-02-04T11:53:06;13.60;85.90
1786;DHT22;890;48.158;11.540;2024-02-04T11:55:34;13.30;84.70
1786;DHT22;890;48.158;11.540;2024-02-04T11:58:01;12.90;83.60
1786;DHT22;890;48.158;11.540;2024-02-04T12:00:27;12.70;83.20
1786;DHT22;890;48.158;11.540;2024-02-04T12:03:06;12.60;82.80
1786;DHT22;890;48.158;11.540;2024-02-04T12:05:36;12.50;82.90
1786;DHT22;890;48.158;11.540;2024-02-04T12:08:06;12.40;82.40
1786;DHT22;890;48.158;11.540;2024-02-04T12:10:33;12.20;82.00
1786;DHT22;890;48.158;11.540;2024-02-04T12:13:05;12.20;82.00
1786;DHT22;890;48.158;11.540;2024-02-04T12:15:33;12.20;82.30
1786;DHT22;890;48.158;11.540;2024-02-04T12:18:09;12.20;82.70
1786;DHT22;890;48.158;11.540;2024-02-04T12:20:35;12.20;82.70
1786;DHT22;890;48.158;11.540;2024-02-04T12:23:05;12.30;83.30
1786;DHT22;890;48.158;11.540;2024-02-04T12:25:34;12.40;83.80
1786;DHT22;890;48.158;11.540;2024-02-04T12:28:02;12.30;82.00
1786;DHT22;890;48.158;11.540;2024-02-04T12:30:29;12.20;80.90
1786;DHT22;890;48.158;11.540;2024-02-04T12:32:58;12.10;80.40
1786;DHT22;890;48.158;11.540;2024-02-04T12:35:25;12.00;80.30
1786;DHT22;890;48.158;11.540;2024-02-04T12:37:54;12.00;80.20
1786;DHT22;890;48.158;11.540;2024-02-04T12:40:28;12.00;80.00
1786;DHT22;890;48.158;11.540;2024-02-04T12:43:01;11.90;79.80
1786;DHT22;890;48.158;11.540;2024-02-04T12:45:28;11.80;79.60
1786;DHT22;890;48.158;11.540;2024-02-04T12:47:56;11.90;79.60
1786;DHT22;890;48.158;11.540;2024-02-04T12:50:22;11.90;79.50
1786;DHT22;890;48.158;11.540;2024-02-04T12:52:49;11.90;79.40
1786;DHT22;890;48.158;11.540;2024-02-04T12:55:24;12.10;79.80
1786;DHT22;890;48.158;11.540;2024-02-04T12:57:50;12.00;79.90
1786;DHT22;890;48.158;11.540;2024-02-04T13:00:20;12.10;79.70
1786;DHT22;890;48.158;11.540;2024-02-04T13:02:49;12.30;79.80
1786;DHT22;890;48.158;11.540;2024-02-04T13:05:22;12.40;79.90
1786;DHT22;890;48.158;11.540;2024-02-04T13:07:57;12.40;79.70
1786;DHT22;890;48.158;11.540;2024-02-04T13:10:24;12.60;79.90
1786;DHT22;890;48.158;11.540;2024-02-04T13:15:29;12.80;79.10
1786;DHT22;890;48.158;11.540;2024-02-04T13:17:55;12.80;78.80
1786;DHT22;890;48.158;11.540;2024-02-04T13:20:22;12.80;78.70
1786;DHT22;890;48.158;11.540;2024-02-04T13:22:47;12.80;78.30
1786;DHT22;890;48.158;11.540;2024-02-04T13:25:13;12.70;78.20
1786;DHT22;890;48.158;11.540;2024-02-04T13:27:40;12.50;77.90
1786;DHT22;890;48.158;11.540;2024-02-04T13:30:06;12.40;77.90
1786;DHT22;890;48.158;11.540;2024-02-04T13:32:40;12.50;78.10
1786;DHT22;890;48.158;11.540;2024-02-04T13:35:09;12.40;78.00
1786;DHT22;890;48.158;11.540;2024-02-04T13:37:39;12.40;78.00
1786;DHT22;890;48.158;11.540;2024-02-04T13:40:06;12.30;78.00
1786;DHT22;890;48.158;11.540;2024-02-04T13:42:34;12.30;78.10
1786;DHT22;890;48.158;11.540;2024-02-04T13:45:00;12.30;77.90
1786;DHT22;890;48.158;11.540;2024-02-04T13:47:27;12.20;77.90
1786;DHT22;890;48.158;11.540;2024-02-04T13:49:53;12.20;77.90
1786;DHT22;890;48.158;11.540;2024-02-04T13:52:18;12.20;77.80
1786;DHT22;890;48.158;11.540;2024-02-04T13:54:44;12.10;77.70
1786;DHT22;890;48.158;11.540;2024-02-04T13:57:10;12.10;77.70
1786;DHT22;890;48.158;11.540;2024-02-04T13:59:36;12.20;77.90
1786;DHT22;890;48.158;11.540;2024-02-04T14:02:02;12.20;77.90
1786;DHT22;890;48.158;11.540;2024-02-04T14:04:29;12.10;77.70
1786;DHT22;890;48.158;11.540;2024-02-04T14:06:55;12.10;77.80
1786;DHT22;890;48.158;11.540;2024-02-04T14:09:20;12.10;77.90
1786;DHT22;890;48.158;11.540;2024-02-04T14:11:46;12.00;77.70
1786;DHT22;890;48.158;11.540;2024-02-04T14:14:12;12.10;77.80
1786;DHT22;890;48.158;11.540;2024-02-04T14:16:38;12.00;77.70
1786;DHT22;890;48.158;11.540;2024-02-04T14:19:04;12.10;77.90
1786;DHT22;890;48.158;11.540;2024-02-04T14:21:30;12.10;77.70
1786;DHT22;890;48.158;11.540;2024-02-04T14:23:55;12.10;77.70
1786;DHT22;890;48.158;11.540;2024-02-04T14:26:21;12.10;77.60
1786;DHT22;890;48.158;11.540;2024-02-04T14:28:48;12.00;77.50
1786;DHT22;890;48.158;11.540;2024-02-04T14:31:13;12.00;77.50
1786;DHT22;890;48.158;11.540;2024-02-04T14:33:40;12.00;77.50
1786;DHT22;890;48.158;11.540;2024-02-04T14:36:08;12.00;77.60
1786;DHT22;890;48.158;11.540;2024-02-04T14:38:35;12.10;77.70
1786;DHT22;890;48.158;11.540;2024-02-04T14:41:04;12.10;77.70
1786;DHT22;890;48.158;11.540;2024-02-04T14:43:30;12.10;77.50
1786;DHT22;890;48.158;11.540;2024-02-04T14:45:55;12.10;77.30
1786;DHT22;890;48.158;11.540;2024-02-04T14:48:21;12.10;77.30
1786;DHT22;890;48.158;11.540;2024-02-04T14:50:47;12.10;77.30
1786;DHT22;890;48.158;11.540;2024-02-04T14:53:14;12.10;77.50
1786;DHT22;890;48.158;11.540;2024-02-04T14:55:39;12.10;77.60
1786;DHT22;890;48.158;11.540;2024-02-04T14:58:05;12.10;77.50
1786;DHT22;890;48.158;11.540;2024-02-04T15:00:31;12.10;77.50
1786;DHT22;890;48.158;11.540;2024-02-04T15:02:57;12.10;77.70
1786;DHT22;890;48.158;11.540;2024-02-04T15:05:25;12.20;77.70
1786;DHT22;890;48.158;11.540;2024-02-04T15:07:51;12.20;77.70
1786;DHT22;890;48.158;11.540;2024-02-04T15:10:17;12.10;77.60
1786;DHT22;890;48.158;11.540;2024-02-04T15:12:43;12.10;77.70
1786;DHT22;890;48.158;11.540;2024-02-04T15:15:10;12.10;77.70
1786;DHT22;890;48.158;11.540;2024-02-04T15:17:36;12.20;77.70
1786;DHT22;890;48.158;11.540;2024-02-04T15:20:02;12.20;77.90
1786;DHT22;890;48.158;11.540;2024-02-04T15:22:29;12.20;77.90
1786;DHT22;890;48.158;11.540;2024-02-04T15:24:56;12.20;77.80
1786;DHT22;890;48.158;11.540;2024-02-04T15:27:24;12.20;77.90
1786;DHT22;890;48.158;11.540;2024-02-04T15:29:54;12.20;78.00
1786;DHT22;890;48.158;11.540;2024-02-04T15:32:20;12.20;77.90
1786;DHT22;890;48.158;11.540;2024-02-04T15:34:47;12.20;77.80
1786;DHT22;890;48.158;11.540;2024-02-04T15:37:13;12.20;77.80
1786;DHT22;890;48.158;11.540;2024-02-04T15:39:39;12.20;77.80
1786;DHT22;890;48.158;11.540;2024-02-04T15:42:05;12.20;77.70
1786;DHT22;890;48.158;11.540;2024-02-04T15:44:31;12.20;77.70
1786;DHT22;890;48.158;11.540;2024-02-04T15:46:59;12.20;77.70
1786;DHT22;890;48.158;11.540;2024-02-04T15:49:26;12.30;77.70
1786;DHT22;890;48.158;11.540;2024-02-04T15:51:53;12.30;77.70
1786;DHT22;890;48.158;11.540;2024-02-04T15:54:20;12.30;77.70
1786;DHT22;890;48.158;11.540;2024-02-04T15:56:58;12.30;77.70
1786;DHT22;890;48.158;11.540;2024-02-04T15:59:39;12.30;77.40
1786;DHT22;890;48.158;11.540;2024-02-04T16:02:08;12.20;77.30
1786;DHT22;890;48.158;11.540;2024-02-04T16:04:34;12.30;77.20
1786;DHT22;890;48.158;11.540;2024-02-04T16:07:00;12.30;77.30
1786;DHT22;890;48.158;11.540;2024-02-04T16:09:28;12.30;77.20
1786;DHT22;890;48.158;11.540;2024-02-04T16:12:16;12.30;77.30
1786;DHT22;890;48.158;11.540;2024-02-04T16:14:44;12.30;77.40
1786;DHT22;890;48.158;11.540;2024-02-04T16:17:20;12.20;77.20
1786;DHT22;890;48.158;11.540;2024-02-04T16:19:47;12.20;77.20
1786;DHT22;890;48.158;11.540;2024-02-04T16:22:17;12.20;77.20